createdAt,value
2023-02-13T00:00:23.719Z,103390.88
2023-02-13T00:02:25.749Z,103384.94
2023-02-13T00:04:27.785Z,103387.03
2023-02-13T00:06:29.743Z,103379.97
2023-02-13T00:08:31.778Z,103384.69
2023-02-13T00:10:33.727Z,103385.63
2023-02-13T00:12:36.023Z,103390.44
2023-02-13T00:14:39.649Z,103387.88
2023-02-13T00:16:41.604Z,103390.75
2023-02-13T00:18:43.553Z,103383.16
2023-02-13T00:20:46.203Z,103384.94
2023-02-13T00:22:48.173Z,103379.50
2023-02-13T00:24:51.761Z,103377.38
2023-02-13T00:26:53.816Z,103377.78
2023-02-13T00:28:57.137Z,103370.66
2023-02-13T00:31:04.480Z,103372.34
2023-02-13T00:33:06.609Z,103371.09
2023-02-13T00:35:08.657Z,103374.34
2023-02-13T00:37:10.633Z,103370.69
2023-02-13T00:39:12.774Z,103366.84
2023-02-13T00:41:16.746Z,103370.00
2023-02-13T00:43:20.334Z,103375.16
2023-02-13T00:45:22.431Z,103375.81
2023-02-13T00:47:24.380Z,103373.38
2023-02-13T00:49:26.337Z,103373.69
2023-02-13T00:51:28.428Z,103367.91
2023-02-13T00:53:31.051Z,103365.78
2023-02-13T00:55:34.181Z,103364.75
2023-02-13T00:57:36.183Z,103366.56
2023-02-13T00:59:38.131Z,103370.22
2023-02-13T01:01:40.265Z,103368.66
2023-02-13T01:03:42.486Z,103367.56
2023-02-13T01:05:45.307Z,103374.25
2023-02-13T01:07:47.380Z,103373.56
2023-02-13T01:09:49.332Z,103371.59
2023-02-13T01:11:51.296Z,103373.03
2023-02-13T01:13:53.248Z,103375.38
2023-02-13T01:15:55.379Z,103373.13
2023-02-13T01:17:57.675Z,103368.94
2023-02-13T01:19:59.640Z,103371.13
2023-02-13T01:22:01.687Z,103375.16
2023-02-13T01:24:05.304Z,103383.75
2023-02-13T01:26:09.423Z,103380.41
2023-02-13T01:28:11.418Z,103375.03
2023-02-13T01:30:14.965Z,103375.25
2023-02-13T01:32:17.048Z,103373.38
2023-02-13T01:34:19.393Z,103372.91
2023-02-13T01:36:21.362Z,103364.56
2023-02-13T01:38:23.364Z,103363.44
2023-02-13T01:40:25.329Z,103366.91
2023-02-13T01:42:30.452Z,103364.44
2023-02-13T01:44:38.672Z,103366.91
2023-02-13T01:46:44.233Z,103366.88
2023-02-13T01:48:48.542Z,103361.66
2023-02-13T01:50:57.762Z,103363.34
2023-02-13T01:53:05.931Z,103361.56
2023-02-13T01:55:10.935Z,103361.44
2023-02-13T01:57:19.219Z,103366.22
2023-02-13T01:59:27.268Z,103362.09
2023-02-13T02:01:30.914Z,103368.88
2023-02-13T02:03:40.269Z,103368.47
2023-02-13T02:05:43.348Z,103369.69
2023-02-13T02:07:46.282Z,103375.00
2023-02-13T02:09:48.942Z,103366.00
2023-02-13T02:11:56.579Z,103363.53
2023-02-13T02:13:59.156Z,103357.75
2023-02-13T02:16:01.557Z,103357.75
2023-02-13T02:18:03.829Z,103355.38
2023-02-13T02:20:10.659Z,103353.88
2023-02-13T02:22:16.192Z,103348.94
2023-02-13T02:24:28.049Z,103355.75
2023-02-13T02:26:36.221Z,103342.72
2023-02-13T02:28:41.603Z,103351.19
2023-02-13T02:30:56.097Z,103345.50
2023-02-13T02:33:04.563Z,103340.94
2023-02-13T02:35:10.298Z,103341.47
2023-02-13T02:37:14.103Z,103344.34
2023-02-13T02:39:25.198Z,103350.28
2023-02-13T02:41:42.429Z,103346.38
2023-02-13T02:43:47.930Z,103339.69
2023-02-13T02:46:01.655Z,103337.44
2023-02-13T02:48:11.883Z,103331.44
2023-02-13T02:50:20.509Z,103345.94
2023-02-13T02:52:31.762Z,103346.28
2023-02-13T02:54:46.925Z,103339.22
2023-02-13T02:56:50.582Z,103341.47
2023-02-13T02:59:02.029Z,103347.06
2023-02-13T03:01:13.169Z,103344.50
2023-02-13T03:03:22.183Z,103345.38
2023-02-13T03:05:33.048Z,103340.59
2023-02-13T03:07:34.790Z,103342.03
2023-02-13T03:09:43.886Z,103336.56
2023-02-13T03:11:53.059Z,103333.09
2023-02-13T03:13:55.860Z,103332.22
2023-02-13T03:16:03.603Z,103335.44
2023-02-13T03:18:09.065Z,103338.38
2023-02-13T03:20:18.644Z,103329.91
2023-02-13T03:22:26.913Z,103339.25
2023-02-13T03:24:35.818Z,103331.56
2023-02-13T03:26:44.507Z,103332.47
2023-02-13T03:28:53.057Z,103335.25
2023-02-13T03:30:59.380Z,103328.22
2023-02-13T03:33:07.729Z,103332.56
2023-02-13T03:35:23.414Z,103324.75
2023-02-13T03:37:34.760Z,103325.44
2023-02-13T03:39:40.192Z,103322.88
2023-02-13T03:41:52.987Z,103320.94
2023-02-13T03:43:59.535Z,103316.72
2023-02-13T03:46:03.592Z,103313.94
2023-02-13T03:48:28.785Z,103317.84
2023-02-13T03:50:30.885Z,103309.38
2023-02-13T03:52:37.379Z,103316.72
2023-02-13T03:54:49.340Z,103312.84
2023-02-13T03:56:55.805Z,103311.38
2023-02-13T03:59:02.556Z,103309.69
2023-02-13T04:01:08.430Z,103310.94
2023-02-13T04:03:13.810Z,103304.44
2023-02-13T04:05:21.549Z,103313.13
2023-02-13T04:07:29.138Z,103312.69
2023-02-13T04:09:34.142Z,103310.03
2023-02-13T04:11:39.487Z,103309.81
2023-02-13T04:13:47.758Z,103313.59
2023-02-13T04:15:56.345Z,103305.03
2023-02-13T04:18:08.168Z,103314.59
2023-02-13T04:20:12.270Z,103308.69
2023-02-13T04:22:14.716Z,103310.59
2023-02-13T04:24:16.667Z,103313.38
2023-02-13T04:26:22.855Z,103311.38
2023-02-13T04:28:24.832Z,103314.38
2023-02-13T04:30:26.923Z,103312.38
2023-02-13T04:32:29.276Z,103311.94
2023-02-13T04:34:31.309Z,103314.16
2023-02-13T04:36:33.261Z,103314.16
2023-02-13T04:38:35.157Z,103314.84
2023-02-13T04:40:37.129Z,103309.03
2023-02-13T04:42:39.291Z,103310.28
2023-02-13T04:44:41.334Z,103314.63
2023-02-13T04:46:43.265Z,103311.38
2023-02-13T04:48:45.179Z,103309.59
2023-02-13T04:50:48.170Z,103309.38
2023-02-13T04:52:55.686Z,103313.38
2023-02-13T04:54:57.748Z,103306.47
2023-02-13T04:56:59.781Z,103306.94
2023-02-13T04:59:01.800Z,103309.38
2023-02-13T05:01:11.197Z,103307.16
2023-02-13T05:03:14.091Z,103308.47
2023-02-13T05:05:16.307Z,103305.16
2023-02-13T05:07:18.195Z,103310.69
2023-02-13T05:09:20.260Z,103303.69
2023-02-13T05:11:22.156Z,103305.94
2023-02-13T05:13:24.080Z,103310.91
2023-02-13T05:15:26.374Z,103306.72
2023-02-13T05:17:28.468Z,103304.00
2023-02-13T05:19:30.475Z,103296.44
2023-02-13T05:21:35.536Z,103296.44
2023-02-13T05:23:37.624Z,103299.88
2023-02-13T05:25:41.831Z,103294.88
2023-02-13T05:27:43.781Z,103287.53
2023-02-13T05:29:45.737Z,103293.22
2023-02-13T05:31:49.043Z,103288.09
2023-02-13T05:33:51.048Z,103290.88
2023-02-13T05:35:53.176Z,103288.41
2023-02-13T05:37:55.103Z,103283.50
2023-02-13T05:39:56.996Z,103279.84
2023-02-13T05:41:59.698Z,103281.50
2023-02-13T05:44:01.835Z,103281.28
2023-02-13T05:46:05.637Z,103284.50
2023-02-13T05:48:07.750Z,103284.63
2023-02-13T05:50:10.414Z,103288.75
2023-02-13T05:52:12.411Z,103281.50
2023-02-13T05:54:14.642Z,103289.09
2023-02-13T05:56:16.616Z,103286.84
2023-02-13T05:58:20.390Z,103281.16
2023-02-13T06:00:22.599Z,103281.94
2023-02-13T06:02:24.772Z,103281.50
2023-02-13T06:04:27.012Z,103281.28
2023-02-13T06:06:29.092Z,103286.53
2023-02-13T06:08:31.024Z,103281.50
2023-02-13T06:10:32.919Z,103277.06
2023-02-13T06:12:34.846Z,103278.75
2023-02-13T06:14:36.808Z,103275.94
2023-02-13T06:16:38.792Z,103290.78
2023-02-13T06:18:40.998Z,103284.63
2023-02-13T06:20:43.370Z,103279.16
2023-02-13T06:22:49.007Z,103277.50
2023-02-13T06:24:52.365Z,103280.06
2023-02-13T06:26:54.422Z,103282.41
2023-02-13T06:28:56.476Z,103292.41
2023-02-13T06:30:58.903Z,103287.84
2023-02-13T06:33:01.505Z,103292.50
2023-02-13T06:35:05.468Z,103291.97
2023-02-13T06:37:07.788Z,103284.19
2023-02-13T06:39:12.431Z,103288.84
2023-02-13T06:41:14.341Z,103280.38
2023-02-13T06:43:17.883Z,103291.50
2023-02-13T06:45:19.940Z,103290.97
2023-02-13T06:47:21.955Z,103291.88
2023-02-13T06:49:23.921Z,103289.16
2023-02-13T06:51:25.928Z,103296.84
2023-02-13T06:53:28.669Z,103298.19
2023-02-13T06:55:30.737Z,103293.28
2023-02-13T06:57:34.054Z,103297.41
2023-02-13T06:59:36.008Z,103305.88
2023-02-13T07:01:37.954Z,103297.41
2023-02-13T07:03:40.070Z,103299.97
2023-02-13T07:05:42.660Z,103303.78
2023-02-13T07:07:44.860Z,103301.75
2023-02-13T07:09:46.806Z,103298.88
2023-02-13T07:11:48.838Z,103301.06
2023-02-13T07:13:51.530Z,103296.63
2023-02-13T07:15:53.529Z,103295.53
2023-02-13T07:17:59.059Z,103307.06
2023-02-13T07:20:01.211Z,103303.53
2023-02-13T07:22:03.303Z,103298.00
2023-02-13T07:24:07.960Z,103310.22
2023-02-13T07:26:11.397Z,103305.56
2023-02-13T07:28:13.714Z,103306.44
2023-02-13T07:30:16.088Z,103312.13
2023-02-13T07:32:18.078Z,103306.88
2023-02-13T07:34:20.172Z,103315.47
2023-02-13T07:36:22.178Z,103313.34
2023-02-13T07:38:24.147Z,103314.66
2023-02-13T07:40:26.210Z,103315.34
2023-02-13T07:42:28.252Z,103317.91
2023-02-13T07:44:30.708Z,103317.34
2023-02-13T07:46:32.761Z,103318.59
2023-02-13T07:48:34.896Z,103308.31
2023-02-13T07:50:36.896Z,103310.88
2023-02-13T07:52:39.119Z,103315.91
2023-02-13T07:54:47.796Z,103313.09
2023-02-13T07:56:50.002Z,103311.47
2023-02-13T07:58:52.141Z,103306.34
2023-02-13T08:00:54.155Z,103310.31
2023-02-13T08:02:58.777Z,103302.19
2023-02-13T08:05:00.861Z,103305.19
2023-02-13T08:07:03.047Z,103294.09
2023-02-13T08:09:08.216Z,103299.03
2023-02-13T08:11:26.760Z,103298.59
2023-02-13T08:13:29.362Z,103301.94
2023-02-13T08:15:31.732Z,103300.03
2023-02-13T08:17:33.768Z,103299.16
2023-02-13T08:19:36.294Z,103299.47
2023-02-13T08:21:38.416Z,103292.59
2023-02-13T08:23:40.846Z,103294.75
2023-02-13T08:25:43.079Z,103287.94
2023-02-13T08:27:45.124Z,103289.28
2023-02-13T08:29:49.297Z,103294.06
2023-02-13T08:31:51.478Z,103294.06
2023-02-13T08:33:53.620Z,103290.69
2023-02-13T08:35:55.807Z,103287.03
2023-02-13T08:38:01.615Z,103288.22
2023-02-13T08:40:04.074Z,103289.47
2023-02-13T08:42:06.164Z,103287.34
2023-02-13T08:44:08.214Z,103289.91
2023-02-13T08:46:10.753Z,103287.81
2023-02-13T08:48:12.894Z,103286.34
2023-02-13T08:50:15.094Z,103290.13
2023-02-13T08:52:17.293Z,103290.13
2023-02-13T08:54:19.354Z,103288.59
2023-02-13T08:56:21.466Z,103291.00
2023-02-13T08:58:24.281Z,103286.84
2023-02-13T09:00:26.392Z,103293.16
2023-02-13T09:02:28.537Z,103292.75
2023-02-13T09:04:30.667Z,103287.94
2023-02-13T09:06:32.771Z,103288.16
2023-02-13T09:08:36.305Z,103287.28
2023-02-13T09:10:39.399Z,103284.41
2023-02-13T09:12:41.450Z,103279.72
2023-02-13T09:14:43.611Z,103269.91
2023-02-13T09:16:45.712Z,103265.56
2023-02-13T09:18:48.817Z,103263.47
2023-02-13T09:20:50.913Z,103267.91
2023-02-13T09:22:54.977Z,103264.13
2023-02-13T09:24:58.356Z,103266.13
2023-02-13T09:27:00.523Z,103260.53
2023-02-13T09:29:02.769Z,103252.84
2023-02-13T09:31:10.024Z,103264.09
2023-02-13T09:33:13.328Z,103259.22
2023-02-13T09:35:16.569Z,103254.75
2023-02-13T09:37:19.133Z,103251.81
2023-02-13T09:39:21.337Z,103256.28
2023-02-13T09:41:28.887Z,103260.16
2023-02-13T09:43:34.377Z,103261.34
2023-02-13T09:45:37.472Z,103250.66
2023-02-13T09:47:43.805Z,103256.47
2023-02-13T09:49:53.014Z,103255.47
2023-02-13T09:51:57.681Z,103244.72
2023-02-13T09:54:03.799Z,103249.53
2023-02-13T09:56:10.862Z,103252.53
2023-02-13T09:58:24.936Z,103250.16
2023-02-13T10:00:34.806Z,103250.06
2023-02-13T10:02:44.341Z,103253.13
2023-02-13T10:04:48.193Z,103254.47
2023-02-13T10:06:58.899Z,103250.41
2023-02-13T10:09:09.652Z,103254.81
2023-02-13T10:11:18.064Z,103252.44
2023-02-13T10:13:26.353Z,103249.88
2023-02-13T10:15:34.480Z,103246.81
2023-02-13T10:17:41.964Z,103251.59
2023-02-13T10:19:50.721Z,103249.06
2023-02-13T10:21:58.384Z,103250.59
2023-02-13T10:24:06.695Z,103249.25
2023-02-13T10:26:20.113Z,103251.03
2023-02-13T10:28:30.614Z,103243.22
2023-02-13T10:30:37.226Z,103248.47
2023-02-13T10:32:44.184Z,103249.59
2023-02-13T10:34:47.399Z,103242.47
2023-02-13T10:36:49.609Z,103250.50
2023-02-13T10:38:56.147Z,103245.25
2023-02-13T10:40:58.939Z,103244.97
2023-02-13T10:43:07.418Z,103254.38
2023-02-13T10:45:17.695Z,103250.22
2023-02-13T10:47:34.447Z,103257.63
2023-02-13T10:49:42.666Z,103253.88
2023-02-13T10:51:55.493Z,103259.28
2023-02-13T10:54:06.799Z,103254.13
2023-02-13T10:56:12.861Z,103256.03
2023-02-13T10:58:15.761Z,103255.59
2023-02-13T11:00:23.101Z,103259.16
2023-02-13T11:02:28.790Z,103254.22
2023-02-13T11:04:31.223Z,103250.91
2023-02-13T11:06:36.682Z,103247.03
2023-02-13T11:08:43.832Z,103248.69
2023-02-13T11:10:46.162Z,103254.22
2023-02-13T11:12:49.330Z,103246.59
2023-02-13T11:14:57.568Z,103247.78
2023-02-13T11:17:04.476Z,103243.94
2023-02-13T11:19:06.735Z,103248.25
2023-02-13T11:21:15.282Z,103243.53
2023-02-13T11:23:24.131Z,103237.50
2023-02-13T11:25:31.439Z,103236.19
2023-02-13T11:27:37.317Z,103231.41
2023-02-13T11:29:54.194Z,103234.88
2023-02-13T11:32:02.646Z,103231.41
2023-02-13T11:34:10.887Z,103223.59
2023-02-13T11:36:18.021Z,103226.00
2023-02-13T11:38:23.572Z,103218.28
2023-02-13T11:40:31.817Z,103219.09
2023-02-13T11:42:37.243Z,103227.53
2023-02-13T11:44:41.649Z,103214.91
2023-02-13T11:46:48.403Z,103204.25
2023-02-13T11:48:56.668Z,103206.34
2023-02-13T11:50:59.135Z,103207.25
2023-02-13T11:53:07.751Z,103194.44
2023-02-13T11:55:15.995Z,103187.50
2023-02-13T11:57:21.512Z,103179.75
2023-02-13T11:59:25.658Z,103177.84
2023-02-13T12:01:29.294Z,103180.13
2023-02-13T12:03:32.441Z,103181.16
2023-02-13T12:05:34.681Z,103171.44
2023-02-13T12:07:36.883Z,103161.41
2023-02-13T12:09:41.630Z,103161.50
2023-02-13T12:11:49.017Z,103164.66
2023-02-13T12:13:52.299Z,103164.31
2023-02-13T12:16:02.888Z,103160.38
2023-02-13T12:18:09.481Z,103165.41
2023-02-13T12:20:16.446Z,103163.66
2023-02-13T12:22:24.753Z,103160.41
2023-02-13T12:24:30.349Z,103154.69
2023-02-13T12:26:37.282Z,103158.31
2023-02-13T12:28:55.449Z,103159.53
2023-02-13T12:31:05.848Z,103148.78
2023-02-13T12:33:11.494Z,103152.25
2023-02-13T12:35:28.972Z,103149.53
2023-02-13T12:37:34.452Z,103146.25
2023-02-13T12:39:45.213Z,103145.84
2023-02-13T12:41:48.417Z,103143.53
2023-02-13T12:43:56.600Z,103143.03
2023-02-13T12:46:04.104Z,103134.53
2023-02-13T12:48:09.733Z,103136.69
2023-02-13T12:50:21.167Z,103129.91
2023-02-13T12:52:29.335Z,103130.03
2023-02-13T12:54:33.233Z,103122.97
2023-02-13T12:56:42.013Z,103124.63
2023-02-13T12:58:45.951Z,103123.28
2023-02-13T13:00:49.299Z,103121.69
2023-02-13T13:02:57.565Z,103122.75
2023-02-13T13:05:06.301Z,103114.91
2023-02-13T13:07:20.480Z,103106.47
2023-02-13T13:09:27.041Z,103110.91
2023-02-13T13:11:38.423Z,103107.75
2023-02-13T13:13:49.350Z,103111.09
2023-02-13T13:15:55.532Z,103106.91
2023-02-13T13:18:01.125Z,103102.09
2023-02-13T13:20:09.377Z,103104.66
2023-02-13T13:22:20.285Z,103095.47
2023-02-13T13:24:26.946Z,103091.41
2023-02-13T13:26:34.127Z,103091.59
2023-02-13T13:28:41.879Z,103087.28
2023-02-13T13:30:44.442Z,103082.16
2023-02-13T13:32:52.559Z,103081.09
2023-02-13T13:34:56.400Z,103074.56
2023-02-13T13:37:02.041Z,103079.75
2023-02-13T13:39:16.477Z,103080.69
2023-02-13T13:41:30.197Z,103075.22
2023-02-13T13:43:39.812Z,103073.03
2023-02-13T13:45:48.217Z,103073.84
2023-02-13T13:47:54.862Z,103075.69
2023-02-13T13:50:00.117Z,103066.22
2023-02-13T13:52:08.369Z,103070.03
2023-02-13T13:54:11.235Z,103064.50
2023-02-13T13:56:13.577Z,103064.81
2023-02-13T13:58:21.868Z,103067.97
2023-02-13T14:00:28.182Z,103065.00
2023-02-13T14:02:34.837Z,103060.91
2023-02-13T14:04:41.779Z,103052.03
2023-02-13T14:06:44.576Z,103050.66
2023-02-13T14:08:47.696Z,103050.00
2023-02-13T14:10:50.556Z,103052.75
2023-02-13T14:12:56.095Z,103048.78
2023-02-13T14:15:00.207Z,103047.59
2023-02-13T14:17:02.757Z,103031.97
2023-02-13T14:19:06.270Z,103036.44
2023-02-13T14:21:08.534Z,103032.00
2023-02-13T14:23:14.228Z,103026.59
2023-02-13T14:25:22.773Z,103030.94
2023-02-13T14:27:30.207Z,103027.28
2023-02-13T14:29:33.992Z,103028.28
2023-02-13T14:31:40.289Z,103028.72
2023-02-13T14:33:43.015Z,103028.28
2023-02-13T14:35:45.149Z,103023.56
2023-02-13T14:37:52.046Z,103020.34
2023-02-13T14:40:09.636Z,103024.53
2023-02-13T14:42:17.939Z,103025.84
2023-02-13T14:44:23.448Z,103022.72
2023-02-13T14:46:31.779Z,103025.75
2023-02-13T14:48:40.368Z,103024.38
2023-02-13T14:50:49.253Z,103016.00
2023-02-13T14:52:52.735Z,103014.31
2023-02-13T14:55:01.021Z,103014.88
2023-02-13T14:57:09.580Z,103020.25
2023-02-13T14:59:17.978Z,103019.78
2023-02-13T15:01:28.530Z,103024.25
2023-02-13T15:03:38.688Z,103015.56
2023-02-13T15:05:41.757Z,103014.25
2023-02-13T15:07:49.300Z,103023.28
2023-02-13T15:09:56.216Z,103017.25
2023-02-13T15:11:59.279Z,103015.19
2023-02-13T15:14:17.493Z,103011.81
2023-02-13T15:16:19.715Z,103018.66
2023-02-13T15:18:26.276Z,103007.03
2023-02-13T15:20:33.250Z,103010.72
2023-02-13T15:22:38.842Z,103005.88
2023-02-13T15:24:46.369Z,103007.41
2023-02-13T15:26:54.971Z,102999.00
2023-02-13T15:28:59.655Z,102999.22
2023-02-13T15:31:05.621Z,103007.31
2023-02-13T15:33:12.214Z,102997.97
2023-02-13T15:35:26.055Z,102998.91
2023-02-13T15:37:30.648Z,102996.31
2023-02-13T15:39:32.995Z,103004.19
2023-02-13T15:41:39.055Z,102999.59
2023-02-13T15:43:44.566Z,102995.38
2023-02-13T15:45:46.771Z,102995.81
2023-02-13T15:47:50.214Z,102995.81
2023-02-13T15:49:52.594Z,102992.16
2023-02-13T15:52:00.929Z,102989.38
2023-02-13T15:54:06.074Z,102995.31
2023-02-13T15:56:15.351Z,102999.34
2023-02-13T15:58:17.487Z,103003.13
2023-02-13T16:00:25.637Z,103001.22
2023-02-13T16:02:33.980Z,103000.13
2023-02-13T16:04:36.529Z,103003.28
2023-02-13T16:06:39.191Z,103001.34
2023-02-13T16:08:45.555Z,102995.78
2023-02-13T16:10:47.962Z,102994.25
2023-02-13T16:12:50.095Z,102993.34
2023-02-13T16:14:55.469Z,103007.09
2023-02-13T16:17:03.163Z,103005.69
2023-02-13T16:19:05.391Z,103011.50
2023-02-13T16:21:09.305Z,103011.09
2023-02-13T16:23:17.689Z,103013.28
2023-02-13T16:25:25.487Z,103010.41
2023-02-13T16:27:28.822Z,103008.75
2023-02-13T16:29:31.120Z,103009.31
2023-02-13T16:31:33.454Z,103003.03
2023-02-13T16:33:41.656Z,103007.34
2023-02-13T16:35:49.294Z,103006.97
2023-02-13T16:37:56.453Z,103008.38
2023-02-13T16:40:20.357Z,103007.56
2023-02-13T16:42:22.874Z,103004.81
2023-02-13T16:44:30.270Z,103011.91
2023-02-13T16:46:33.935Z,103020.47
2023-02-13T16:48:36.588Z,103018.41
2023-02-13T16:50:38.751Z,103015.84
2023-02-13T16:52:41.088Z,103011.94
2023-02-13T16:54:48.105Z,103010.19
2023-02-13T16:56:52.642Z,103006.69
2023-02-13T16:59:00.890Z,103011.75
2023-02-13T17:01:04.939Z,103008.69
2023-02-13T17:03:09.713Z,103011.41
2023-02-13T17:05:12.460Z,103015.88
2023-02-13T17:07:18.146Z,103014.91
2023-02-13T17:09:20.557Z,103006.75
2023-02-13T17:11:22.874Z,103007.88
2023-02-13T17:13:25.682Z,103006.50
2023-02-13T17:15:30.156Z,103012.03
2023-02-13T17:17:33.060Z,103008.34
2023-02-13T17:19:35.201Z,103004.59
2023-02-13T17:21:37.575Z,103004.66
2023-02-13T17:23:40.434Z,103006.44
2023-02-13T17:25:43.742Z,103013.16
2023-02-13T17:27:45.801Z,103013.75
2023-02-13T17:29:48.006Z,103014.69
2023-02-13T17:31:55.787Z,103022.75
2023-02-13T17:33:57.953Z,103018.59
2023-02-13T17:36:00.083Z,103026.28
2023-02-13T17:38:02.532Z,103025.25
2023-02-13T17:40:05.343Z,103027.84
2023-02-13T17:42:15.309Z,103028.34
2023-02-13T17:44:17.532Z,103028.88
2023-02-13T17:46:19.879Z,103039.91
2023-02-13T17:48:22.013Z,103035.97
2023-02-13T17:50:25.223Z,103032.25
2023-02-13T17:52:29.150Z,103032.75
2023-02-13T17:54:33.218Z,103042.94
2023-02-13T17:56:35.406Z,103030.69
2023-02-13T17:58:37.521Z,103030.69
2023-02-13T18:00:39.713Z,103034.13
2023-02-13T18:02:42.785Z,103041.88
2023-02-13T18:04:45.370Z,103035.88
2023-02-13T18:06:51.927Z,103037.34
2023-02-13T18:08:53.968Z,103030.66
2023-02-13T18:10:56.410Z,103033.53
2023-02-13T18:13:04.514Z,103029.19
2023-02-13T18:15:07.249Z,103032.59
2023-02-13T18:17:10.607Z,103030.81
2023-02-13T18:19:14.137Z,103026.78
2023-02-13T18:21:16.270Z,103033.38
2023-02-13T18:23:18.414Z,103029.25
2023-02-13T18:25:21.445Z,103032.34
2023-02-13T18:27:25.537Z,103036.03
2023-02-13T18:29:27.947Z,103036.53
2023-02-13T18:31:30.488Z,103046.19
2023-02-13T18:33:32.868Z,103040.88
2023-02-13T18:35:36.726Z,103041.03
2023-02-13T18:37:39.448Z,103044.28
2023-02-13T18:39:41.554Z,103047.31
2023-02-13T18:41:43.989Z,103044.25
2023-02-13T18:43:46.204Z,103046.81
2023-02-13T18:45:48.552Z,103046.69
2023-02-13T18:47:50.650Z,103042.63
2023-02-13T18:49:52.817Z,103045.81
2023-02-13T18:51:54.893Z,103045.66
2023-02-13T18:53:57.349Z,103042.19
2023-02-13T18:56:01.477Z,103043.47
2023-02-13T18:58:03.646Z,103040.13
2023-02-13T19:00:07.418Z,103045.88
2023-02-13T19:02:10.780Z,103045.56
2023-02-13T19:04:12.974Z,103049.28
2023-02-13T19:06:19.306Z,103044.50
2023-02-13T19:08:21.331Z,103037.84
2023-02-13T19:10:23.490Z,103049.41
2023-02-13T19:12:25.515Z,103046.53
2023-02-13T19:14:27.557Z,103042.72
2023-02-13T19:16:31.372Z,103040.22
2023-02-13T19:18:37.191Z,103036.69
2023-02-13T19:20:41.452Z,103036.56
2023-02-13T19:22:43.493Z,103036.81
2023-02-13T19:24:45.545Z,103034.22
2023-02-13T19:26:47.717Z,103035.03
2023-02-13T19:28:50.677Z,103029.34
2023-02-13T19:30:52.803Z,103032.28
2023-02-13T19:32:55.090Z,103026.66
2023-02-13T19:34:57.056Z,103019.97
2023-02-13T19:36:59.079Z,103022.78
2023-02-13T19:39:04.018Z,103016.28
2023-02-13T19:41:08.382Z,103021.53
2023-02-13T19:43:10.913Z,103019.28
2023-02-13T19:45:12.992Z,103020.25
2023-02-13T19:47:15.026Z,103023.84
2023-02-13T19:49:17.085Z,103034.94
2023-02-13T19:51:21.660Z,103028.34
2023-02-13T19:53:23.665Z,103024.38
2023-02-13T19:55:27.318Z,103023.28
2023-02-13T19:57:29.316Z,103035.09
2023-02-13T19:59:32.837Z,103039.72
2023-02-13T20:01:34.994Z,103035.81
2023-02-13T20:03:37.040Z,103036.00
2023-02-13T20:05:40.101Z,103032.72
2023-02-13T20:07:42.235Z,103036.16
2023-02-13T20:09:44.248Z,103038.91
2023-02-13T20:11:46.424Z,103040.78
2023-02-13T20:13:52.840Z,103044.66
2023-02-13T20:15:55.364Z,103046.16
2023-02-13T20:17:57.461Z,103050.59
2023-02-13T20:19:59.559Z,103051.72
2023-02-13T20:22:01.921Z,103048.00
2023-02-13T20:24:05.059Z,103048.66
2023-02-13T20:26:11.174Z,103051.56
2023-02-13T20:28:13.200Z,103057.06
2023-02-13T20:30:16.742Z,103054.44
2023-02-13T20:32:18.845Z,103055.00
2023-02-13T20:34:20.913Z,103058.28
2023-02-13T20:36:25.613Z,103060.41
2023-02-13T20:38:27.532Z,103057.66
2023-02-13T20:40:29.582Z,103058.78
2023-02-13T20:42:33.852Z,103055.34
2023-02-13T20:44:36.030Z,103055.34
2023-02-13T20:46:39.923Z,103047.94
2023-02-13T20:48:43.516Z,103047.38
2023-02-13T20:50:45.680Z,103050.75
2023-02-13T20:52:47.807Z,103050.34
2023-02-13T20:54:49.845Z,103049.63
2023-02-13T20:56:51.955Z,103048.16
2023-02-13T20:58:57.846Z,103059.31
2023-02-13T21:01:02.208Z,103051.13
2023-02-13T21:03:06.620Z,103045.50
2023-02-13T21:05:09.557Z,103044.53
2023-02-13T21:07:11.847Z,103047.03
2023-02-13T21:09:15.515Z,103045.25
2023-02-13T21:11:21.295Z,103042.75
2023-02-13T21:13:26.597Z,103038.25
2023-02-13T21:15:30.833Z,103043.78
2023-02-13T21:17:35.087Z,103038.69
2023-02-13T21:19:39.007Z,103041.13
2023-02-13T21:21:46.227Z,103039.88
2023-02-13T21:23:53.650Z,103042.75
2023-02-13T21:25:58.929Z,103045.66
2023-02-13T21:28:04.258Z,103038.34
2023-02-13T21:30:08.052Z,103043.25
2023-02-13T21:32:11.588Z,103043.75
2023-02-13T21:34:16.540Z,103040.66
2023-02-13T21:36:20.909Z,103037.53
2023-02-13T21:38:24.343Z,103044.34
2023-02-13T21:40:26.569Z,103036.22
2023-02-13T21:42:28.610Z,103038.19
2023-02-13T21:44:30.614Z,103041.75
2023-02-13T21:46:33.566Z,103039.06
2023-02-13T21:48:35.600Z,103036.22
2023-02-13T21:50:38.208Z,103043.06
2023-02-13T21:52:40.375Z,103044.34
2023-02-13T21:54:43.539Z,103042.47
2023-02-13T21:56:45.680Z,103037.22
2023-02-13T21:58:48.247Z,103030.84
2023-02-13T22:00:50.395Z,103037.06
2023-02-13T22:02:52.479Z,103035.28
2023-02-13T22:04:54.592Z,103034.75
2023-02-13T22:06:56.646Z,103028.72
2023-02-13T22:09:01.661Z,103029.44
2023-02-13T22:11:04.139Z,103035.66
2023-02-13T22:13:07.386Z,103029.06
2023-02-13T22:15:10.420Z,103035.19
2023-02-13T22:17:12.500Z,103030.31
2023-02-13T22:19:16.177Z,103035.06
2023-02-13T22:21:20.469Z,103033.09
2023-02-13T22:23:22.364Z,103027.03
2023-02-13T22:25:24.248Z,103032.47
2023-02-13T22:27:43.468Z,103023.00
2023-02-13T22:29:48.335Z,103019.94
2023-02-13T22:31:50.693Z,103023.41
2023-02-13T22:34:03.360Z,103022.13
2023-02-13T22:36:06.604Z,103020.03
2023-02-13T22:38:08.903Z,103020.09
2023-02-13T22:40:11.609Z,103018.97
2023-02-13T22:42:14.375Z,103010.69
2023-02-13T22:44:16.664Z,103013.00
2023-02-13T22:46:23.080Z,103010.78
2023-02-13T22:48:24.930Z,103014.28
2023-02-13T22:50:26.762Z,103004.50
2023-02-13T22:52:28.951Z,103009.13
2023-02-13T22:54:31.564Z,103005.31
2023-02-13T22:56:34.568Z,103003.25
2023-02-13T22:58:36.693Z,103007.19
2023-02-13T23:00:39.470Z,103012.09
2023-02-13T23:02:41.525Z,103014.75
2023-02-13T23:04:47.618Z,103011.22
2023-02-13T23:06:50.146Z,103009.09
2023-02-13T23:08:53.754Z,103018.44
2023-02-13T23:10:59.457Z,103024.50
2023-02-13T23:13:01.964Z,103019.84
2023-02-13T23:15:08.638Z,103022.69
2023-02-13T23:17:14.126Z,103028.25
2023-02-13T23:19:16.240Z,103025.16
2023-02-13T23:21:18.717Z,103030.13
2023-02-13T23:23:21.386Z,103021.63
2023-02-13T23:25:25.926Z,103016.66
2023-02-13T23:27:28.766Z,103022.31
2023-02-13T23:29:30.888Z,103022.03
2023-02-13T23:31:34.553Z,103014.22
2023-02-13T23:33:36.594Z,103015.78
2023-02-13T23:35:38.565Z,103023.88
2023-02-13T23:37:40.747Z,103023.41
2023-02-13T23:39:42.894Z,103013.63
2023-02-13T23:41:45.070Z,103020.47